sensor_id;sensor_type;location;lat;lon;timestamp;P1;durP1;ratioP1;P2;durP2;ratioP2
65769;SDS011;52512;47.650;8.578;2022-09-28T00:01:09;3.10;;;1.70;;
65769;SDS011;52512;47.650;8.578;2022-09-28T00:03:38;4.75;;;1.50;;
65769;SDS011;52512;47.650;8.578;2022-09-28T00:06:05;1.47;;;1.37;;
65769;SDS011;52512;47.650;8.578;2022-09-28T00:08:33;1.30;;;1.20;;
65769;SDS011;52512;47.650;8.578;2022-09-28T00:10:59;2.20;;;1.52;;
65769;SDS011;52512;47.650;8.578;2022-09-28T00:13:25;1.77;;;1.65;;
65769;SDS011;52512;47.650;8.578;2022-09-28T00:16:00;1.30;;;1.20;;
65769;SDS011;52512;47.650;8.578;2022-09-28T00:18:46;1.20;;;1.20;;
65769;SDS011;52512;47.650;8.578;2022-09-28T00:21:14;2.08;;;1.40;;
65769;SDS011;52512;47.650;8.578;2022-09-28T00:23:46;2.47;;;1.70;;
65769;SDS011;52512;47.650;8.578;2022-09-28T00:26:31;5.10;;;1.50;;
65769;SDS011;52512;47.650;8.578;2022-09-28T00:28:58;6.88;;;1.58;;
65769;SDS011;52512;47.650;8.578;2022-09-28T00:31:26;7.50;;;1.70;;
65769;SDS011;52512;47.650;8.578;2022-09-28T00:33:54;2.67;;;1.85;;
65769;SDS011;52512;47.650;8.578;2022-09-28T00:36:24;1.30;;;1.30;;
65769;SDS011;52512;47.650;8.578;2022-09-28T00:38:52;5.88;;;2.28;;
65769;SDS011;52512;47.650;8.578;2022-09-28T00:41:20;1.75;;;1.48;;
65769;SDS011;52512;47.650;8.578;2022-09-28T00:43:50;1.70;;;1.60;;
65769;SDS011;52512;47.650;8.578;2022-09-28T00:49:12;3.70;;;1.60;;
65769;SDS011;52512;47.650;8.578;2022-09-28T00:51:41;2.63;;;1.30;;
65769;SDS011;52512;47.650;8.578;2022-09-28T00:54:09;3.80;;;1.35;;
65769;SDS011;52512;47.650;8.578;2022-09-28T00:56:36;7.18;;;1.67;;
65769;SDS011;52512;47.650;8.578;2022-09-28T00:59:05;3.88;;;1.45;;
65769;SDS011;52512;47.650;8.578;2022-09-28T01:01:32;7.15;;;1.42;;
65769;SDS011;52512;47.650;8.578;2022-09-28T01:03:59;4.70;;;1.20;;
65769;SDS011;52512;47.650;8.578;2022-09-28T01:06:27;7.63;;;1.95;;
65769;SDS011;52512;47.650;8.578;2022-09-28T01:08:56;2.15;;;1.45;;
65769;SDS011;52512;47.650;8.578;2022-09-28T01:11:24;2.92;;;1.20;;
65769;SDS011;52512;47.650;8.578;2022-09-28T01:13:51;2.35;;;1.75;;
65769;SDS011;52512;47.650;8.578;2022-09-28T01:16:26;1.75;;;1.65;;
65769;SDS011;52512;47.650;8.578;2022-09-28T01:21:49;5.68;;;1.35;;
65769;SDS011;52512;47.650;8.578;2022-09-28T01:29:48;4.53;;;1.52;;
65769;SDS011;52512;47.650;8.578;2022-09-28T01:32:54;1.95;;;1.50;;
65769;SDS011;52512;47.650;8.578;2022-09-28T01:35:39;1.67;;;1.38;;
65769;SDS011;52512;47.650;8.578;2022-09-28T01:38:09;5.72;;;1.50;;
65769;SDS011;52512;47.650;8.578;2022-09-28T01:40:41;1.20;;;1.10;;
65769;SDS011;52512;47.650;8.578;2022-09-28T01:43:18;3.22;;;1.13;;
65769;SDS011;52512;47.650;8.578;2022-09-28T01:49:18;1.00;;;1.00;;
65769;SDS011;52512;47.650;8.578;2022-09-28T01:51:35;2.83;;;1.48;;
65769;SDS011;52512;47.650;8.578;2022-09-28T01:54:47;1.05;;;1.05;;
65769;SDS011;52512;47.650;8.578;2022-09-28T01:56:58;8.27;;;1.63;;
65769;SDS011;52512;47.650;8.578;2022-09-28T01:59:29;1.10;;;1.00;;
65769;SDS011;52512;47.650;8.578;2022-09-28T02:02:03;4.60;;;1.40;;
65769;SDS011;52512;47.650;8.578;2022-09-28T02:04:41;5.00;;;1.40;;
65769;SDS011;52512;47.650;8.578;2022-09-28T02:07:39;1.50;;;1.10;;
65769;SDS011;52512;47.650;8.578;2022-09-28T02:10:12;2.55;;;1.40;;
65769;SDS011;52512;47.650;8.578;2022-09-28T02:12:47;1.35;;;1.15;;
65769;SDS011;52512;47.650;8.578;2022-09-28T02:15:22;1.35;;;1.10;;
65769;SDS011;52512;47.650;8.578;2022-09-28T02:17:51;0.85;;;0.85;;
65769;SDS011;52512;47.650;8.578;2022-09-28T02:20:17;7.40;;;1.13;;
65769;SDS011;52512;47.650;8.578;2022-09-28T02:22:49;1.10;;;1.10;;
65769;SDS011;52512;47.650;8.578;2022-09-28T02:25:22;1.35;;;1.25;;
65769;SDS011;52512;47.650;8.578;2022-09-28T02:28:05;2.25;;;1.02;;
65769;SDS011;52512;47.650;8.578;2022-09-28T02:30:34;2.80;;;1.52;;
65769;SDS011;52512;47.650;8.578;2022-09-28T02:33:04;2.55;;;1.20;;
65769;SDS011;52512;47.650;8.578;2022-09-28T02:35:51;7.32;;;1.25;;
65769;SDS011;52512;47.650;8.578;2022-09-28T02:38:17;2.73;;;1.63;;
65769;SDS011;52512;47.650;8.578;2022-09-28T02:40:44;1.37;;;1.10;;
65769;SDS011;52512;47.650;8.578;2022-09-28T02:51:37;3.15;;;0.95;;
65769;SDS011;52512;47.650;8.578;2022-09-28T02:54:39;3.45;;;1.55;;
65769;SDS011;52512;47.650;8.578;2022-09-28T03:02:36;5.93;;;1.33;;
65769;SDS011;52512;47.650;8.578;2022-09-28T03:07:36;2.15;;;1.20;;
65769;SDS011;52512;47.650;8.578;2022-09-28T03:12:59;1.00;;;0.90;;
65769;SDS011;52512;47.650;8.578;2022-09-28T03:15:27;1.80;;;1.17;;
65769;SDS011;52512;47.650;8.578;2022-09-28T03:17:55;1.20;;;1.20;;
65769;SDS011;52512;47.650;8.578;2022-09-28T03:20:21;1.40;;;1.30;;
65769;SDS011;52512;47.650;8.578;2022-09-28T03:22:47;4.97;;;1.30;;
65769;SDS011;52512;47.650;8.578;2022-09-28T03:25:12;8.70;;;2.27;;
65769;SDS011;52512;47.650;8.578;2022-09-28T03:27:39;5.03;;;1.80;;
65769;SDS011;52512;47.650;8.578;2022-09-28T03:30:06;0.90;;;0.80;;
65769;SDS011;52512;47.650;8.578;2022-09-28T03:32:32;2.45;;;1.60;;
65769;SDS011;52512;47.650;8.578;2022-09-28T03:34:58;1.37;;;1.00;;
65769;SDS011;52512;47.650;8.578;2022-09-28T03:37:23;1.40;;;1.30;;
65769;SDS011;52512;47.650;8.578;2022-09-28T03:39:50;3.72;;;1.38;;
65769;SDS011;52512;47.650;8.578;2022-09-28T03:42:15;1.67;;;1.53;;
65769;SDS011;52512;47.650;8.578;2022-09-28T03:44:41;0.93;;;0.93;;
65769;SDS011;52512;47.650;8.578;2022-09-28T03:47:06;0.90;;;0.90;;
65769;SDS011;52512;47.650;8.578;2022-09-28T03:49:33;0.90;;;0.90;;
65769;SDS011;52512;47.650;8.578;2022-09-28T03:51:58;2.20;;;1.20;;
65769;SDS011;52512;47.650;8.578;2022-09-28T03:54:24;1.30;;;1.20;;
65769;SDS011;52512;47.650;8.578;2022-09-28T03:56:50;10.80;;;1.20;;
65769;SDS011;52512;47.650;8.578;2022-09-28T03:59:16;1.00;;;1.00;;
65769;SDS011;52512;47.650;8.578;2022-09-28T04:01:42;0.90;;;0.90;;
65769;SDS011;52512;47.650;8.578;2022-09-28T04:04:10;1.30;;;1.17;;
65769;SDS011;52512;47.650;8.578;2022-09-28T04:06:36;2.15;;;1.58;;
65769;SDS011;52512;47.650;8.578;2022-09-28T04:09:02;1.80;;;1.00;;
65769;SDS011;52512;47.650;8.578;2022-09-28T04:11:28;5.17;;;1.17;;
65769;SDS011;52512;47.650;8.578;2022-09-28T04:13:53;1.80;;;1.03;;
65769;SDS011;52512;47.650;8.578;2022-09-28T04:16:19;3.03;;;1.00;;
65769;SDS011;52512;47.650;8.578;2022-09-28T04:18:45;1.17;;;1.07;;
65769;SDS011;52512;47.650;8.578;2022-09-28T04:21:12;10.20;;;1.35;;
65769;SDS011;52512;47.650;8.578;2022-09-28T04:23:40;1.23;;;1.23;;
65769;SDS011;52512;47.650;8.578;2022-09-28T04:26:07;1.40;;;1.30;;
65769;SDS011;52512;47.650;8.578;2022-09-28T04:28:46;0.90;;;0.90;;
65769;SDS011;52512;47.650;8.578;2022-09-28T04:31:52;0.95;;;0.95;;
65769;SDS011;52512;47.650;8.578;2022-09-28T04:34:19;2.05;;;1.20;;
65769;SDS011;52512;47.650;8.578;2022-09-28T04:36:46;1.63;;;1.10;;
65769;SDS011;52512;47.650;8.578;2022-09-28T04:39:13;1.67;;;1.10;;
65769;SDS011;52512;47.650;8.578;2022-09-28T04:41:40;2.22;;;1.23;;
65769;SDS011;52512;47.650;8.578;2022-09-28T04:44:07;1.60;;;1.50;;
65769;SDS011;52512;47.650;8.578;2022-09-28T04:46:33;3.83;;;1.30;;
65769;SDS011;52512;47.650;8.578;2022-09-28T04:48:59;1.50;;;1.25;;
65769;SDS011;52512;47.650;8.578;2022-09-28T04:51:25;1.53;;;1.00;;
65769;SDS011;52512;47.650;8.578;2022-09-28T04:53:51;1.80;;;1.70;;
65769;SDS011;52512;47.650;8.578;2022-09-28T04:56:17;1.40;;;1.30;;
65769;SDS011;52512;47.650;8.578;2022-09-28T04:58:43;1.58;;;1.10;;
65769;SDS011;52512;47.650;8.578;2022-09-28T05:01:16;1.20;;;1.10;;
65769;SDS011;52512;47.650;8.578;2022-09-28T05:03:42;1.65;;;1.10;;
65769;SDS011;52512;47.650;8.578;2022-09-28T05:06:08;1.07;;;0.90;;
65769;SDS011;52512;47.650;8.578;2022-09-28T05:08:38;1.10;;;1.00;;
65769;SDS011;52512;47.650;8.578;2022-09-28T05:11:06;2.50;;;1.00;;
65769;SDS011;52512;47.650;8.578;2022-09-28T05:13:38;1.17;;;1.08;;
65769;SDS011;52512;47.650;8.578;2022-09-28T05:16:09;0.73;;;0.73;;
65769;SDS011;52512;47.650;8.578;2022-09-28T05:18:35;2.55;;;0.98;;
65769;SDS011;52512;47.650;8.578;2022-09-28T05:21:01;0.80;;;0.80;;
65769;SDS011;52512;47.650;8.578;2022-09-28T05:23:27;1.10;;;1.00;;
65769;SDS011;52512;47.650;8.578;2022-09-28T05:25:53;0.80;;;0.80;;
65769;SDS011;52512;47.650;8.578;2022-09-28T05:28:21;1.60;;;1.03;;
65769;SDS011;52512;47.650;8.578;2022-09-28T05:30:50;3.10;;;0.90;;
65769;SDS011;52512;47.650;8.578;2022-09-28T05:33:16;1.55;;;0.90;;
65769;SDS011;52512;47.650;8.578;2022-09-28T05:35:41;1.00;;;0.70;;
65769;SDS011;52512;47.650;8.578;2022-09-28T05:38:07;0.90;;;0.90;;
65769;SDS011;52512;47.650;8.578;2022-09-28T05:40:33;0.80;;;0.80;;
65769;SDS011;52512;47.650;8.578;2022-09-28T05:42:59;0.70;;;0.70;;
65769;SDS011;52512;47.650;8.578;2022-09-28T05:45:26;0.90;;;0.90;;
65769;SDS011;52512;47.650;8.578;2022-09-28T05:47:52;1.20;;;1.10;;
65769;SDS011;52512;47.650;8.578;2022-09-28T05:50:18;0.90;;;0.90;;
65769;SDS011;52512;47.650;8.578;2022-09-28T05:52:43;0.80;;;0.80;;
65769;SDS011;52512;47.650;8.578;2022-09-28T05:55:09;1.13;;;1.03;;
65769;SDS011;52512;47.650;8.578;2022-09-28T05:57:35;0.80;;;0.80;;
65769;SDS011;52512;47.650;8.578;2022-09-28T06:00:02;0.80;;;0.80;;
65769;SDS011;52512;47.650;8.578;2022-09-28T06:02:34;0.80;;;0.80;;
65769;SDS011;52512;47.650;8.578;2022-09-28T06:05:00;0.90;;;0.90;;
65769;SDS011;52512;47.650;8.578;2022-09-28T06:07:25;0.70;;;0.70;;
65769;SDS011;52512;47.650;8.578;2022-09-28T06:09:51;1.57;;;0.90;;
65769;SDS011;52512;47.650;8.578;2022-09-28T06:12:17;1.67;;;0.90;;
65769;SDS011;52512;47.650;8.578;2022-09-28T06:14:43;0.70;;;0.70;;
65769;SDS011;52512;47.650;8.578;2022-09-28T06:17:09;0.90;;;0.90;;
65769;SDS011;52512;47.650;8.578;2022-09-28T06:19:35;1.90;;;0.90;;
65769;SDS011;52512;47.650;8.578;2022-09-28T06:22:00;1.07;;;1.07;;
65769;SDS011;52512;47.650;8.578;2022-09-28T06:24:26;4.17;;;1.80;;
65769;SDS011;52512;47.650;8.578;2022-09-28T06:26:52;1.30;;;1.20;;
65769;SDS011;52512;47.650;8.578;2022-09-28T06:29:17;0.80;;;0.80;;
65769;SDS011;52512;47.650;8.578;2022-09-28T06:31:43;5.23;;;1.87;;
65769;SDS011;52512;47.650;8.578;2022-09-28T06:34:10;1.05;;;1.05;;
65769;SDS011;52512;47.650;8.578;2022-09-28T06:36:36;4.03;;;2.47;;
65769;SDS011;52512;47.650;8.578;2022-09-28T06:39:02;2.47;;;1.93;;
65769;SDS011;52512;47.650;8.578;2022-09-28T06:41:28;0.90;;;0.90;;
65769;SDS011;52512;47.650;8.578;2022-09-28T06:43:53;3.57;;;1.20;;
65769;SDS011;52512;47.650;8.578;2022-09-28T06:46:20;2.05;;;1.38;;
65769;SDS011;52512;47.650;8.578;2022-09-28T06:48:46;2.20;;;1.37;;
65769;SDS011;52512;47.650;8.578;2022-09-28T06:51:12;1.50;;;1.40;;
65769;SDS011;52512;47.650;8.578;2022-09-28T06:53:38;1.53;;;1.43;;
65769;SDS011;52512;47.650;8.578;2022-09-28T06:56:03;1.40;;;1.30;;
65769;SDS011;52512;47.650;8.578;2022-09-28T06:58:30;2.30;;;1.33;;
65769;SDS011;52512;47.650;8.578;2022-09-28T07:00:56;4.80;;;2.43;;
65769;SDS011;52512;47.650;8.578;2022-09-28T07:03:23;3.40;;;2.03;;
65769;SDS011;52512;47.650;8.578;2022-09-28T07:05:50;1.67;;;1.58;;
65769;SDS011;52512;47.650;8.578;2022-09-28T07:08:19;2.53;;;2.05;;
65769;SDS011;52512;47.650;8.578;2022-09-28T07:10:48;1.10;;;1.10;;
65769;SDS011;52512;47.650;8.578;2022-09-28T07:13:20;0.85;;;0.73;;
65769;SDS011;52512;47.650;8.578;2022-09-28T07:15:52;1.00;;;1.00;;
65769;SDS011;52512;47.650;8.578;2022-09-28T07:18:18;1.05;;;1.05;;
65769;SDS011;52512;47.650;8.578;2022-09-28T07:20:44;0.90;;;0.90;;
65769;SDS011;52512;47.650;8.578;2022-09-28T07:23:10;1.00;;;1.00;;
65769;SDS011;52512;47.650;8.578;2022-09-28T07:25:35;1.10;;;1.10;;
65769;SDS011;52512;47.650;8.578;2022-09-28T07:28:02;0.95;;;0.95;;
65769;SDS011;52512;47.650;8.578;2022-09-28T07:30:29;1.05;;;1.05;;
65769;SDS011;52512;47.650;8.578;2022-09-28T07:33:00;1.25;;;0.80;;
65769;SDS011;52512;47.650;8.578;2022-09-28T07:35:28;0.90;;;0.90;;
65769;SDS011;52512;47.650;8.578;2022-09-28T07:37:57;0.70;;;0.70;;
65769;SDS011;52512;47.650;8.578;2022-09-28T07:40:24;0.80;;;0.80;;
65769;SDS011;52512;47.650;8.578;2022-09-28T07:43:09;0.88;;;0.88;;
65769;SDS011;52512;47.650;8.578;2022-09-28T07:45:34;0.80;;;0.80;;
65769;SDS011;52512;47.650;8.578;2022-09-28T07:48:01;0.80;;;0.80;;
65769;SDS011;52512;47.650;8.578;2022-09-28T07:50:27;0.80;;;0.80;;
65769;SDS011;52512;47.650;8.578;2022-09-28T07:52:54;0.75;;;0.75;;
65769;SDS011;52512;47.650;8.578;2022-09-28T07:55:21;0.90;;;0.90;;
65769;SDS011;52512;47.650;8.578;2022-09-28T07:57:52;0.70;;;0.70;;
65769;SDS011;52512;47.650;8.578;2022-09-28T08:00:19;0.70;;;0.70;;
65769;SDS011;52512;47.650;8.578;2022-09-28T08:02:45;0.90;;;0.90;;
65769;SDS011;52512;47.650;8.578;2022-09-28T08:05:12;1.00;;;0.82;;
65769;SDS011;52512;47.650;8.578;2022-09-28T08:07:38;0.90;;;0.90;;
65769;SDS011;52512;47.650;8.578;2022-09-28T08:10:03;1.00;;;1.00;;
65769;SDS011;52512;47.650;8.578;2022-09-28T08:12:29;0.85;;;0.85;;
65769;SDS011;52512;47.650;8.578;2022-09-28T08:14:55;0.90;;;0.90;;
65769;SDS011;52512;47.650;8.578;2022-09-28T08:17:21;0.77;;;0.77;;
65769;SDS011;52512;47.650;8.578;2022-09-28T08:19:47;0.77;;;0.77;;
65769;SDS011;52512;47.650;8.578;2022-09-28T08:22:48;0.90;;;0.90;;
65769;SDS011;52512;47.650;8.578;2022-09-28T08:25:14;0.80;;;0.80;;
65769;SDS011;52512;47.650;8.578;2022-09-28T08:27:39;1.00;;;1.00;;
65769;SDS011;52512;47.650;8.578;2022-09-28T08:30:05;1.10;;;1.00;;
65769;SDS011;52512;47.650;8.578;2022-09-28T08:32:31;0.90;;;0.90;;
65769;SDS011;52512;47.650;8.578;2022-09-28T08:34:57;0.95;;;0.95;;
65769;SDS011;52512;47.650;8.578;2022-09-28T08:37:23;1.33;;;1.27;;
65769;SDS011;52512;47.650;8.578;2022-09-28T08:39:49;1.20;;;1.20;;
65769;SDS011;52512;47.650;8.578;2022-09-28T08:42:34;3.80;;;1.27;;
65769;SDS011;52512;47.650;8.578;2022-09-28T08:45:09;1.30;;;0.90;;
65769;SDS011;52512;47.650;8.578;2022-09-28T08:50:46;1.00;;;1.00;;
65769;SDS011;52512;47.650;8.578;2022-09-28T08:56:04;0.80;;;0.80;;
65769;SDS011;52512;47.650;8.578;2022-09-28T08:58:36;0.90;;;0.90;;
65769;SDS011;52512;47.650;8.578;2022-09-28T09:01:07;0.70;;;0.70;;
65769;SDS011;52512;47.650;8.578;2022-09-28T09:03:40;0.88;;;0.85;;
65769;SDS011;52512;47.650;8.578;2022-09-28T09:17:29;1.48;;;1.42;;
65769;SDS011;52512;47.650;8.578;2022-09-28T09:30:21;1.13;;;0.90;;
65769;SDS011;52512;47.650;8.578;2022-09-28T09:33:04;1.42;;;0.85;;
65769;SDS011;52512;47.650;8.578;2022-09-28T09:46:57;1.52;;;1.25;;
65769;SDS011;52512;47.650;8.578;2022-09-28T09:49:42;1.35;;;1.00;;
65769;SDS011;52512;47.650;8.578;2022-09-28T09:54:52;3.75;;;2.00;;
65769;SDS011;52512;47.650;8.578;2022-09-28T09:57:25;2.05;;;1.85;;
65769;SDS011;52512;47.650;8.578;2022-09-28T10:00:17;1.20;;;1.10;;
65769;SDS011;52512;47.650;8.578;2022-09-28T10:02:43;1.23;;;1.05;;
65769;SDS011;52512;47.650;8.578;2022-09-28T10:07:49;5.37;;;1.20;;
65769;SDS011;52512;47.650;8.578;2022-09-28T10:12:57;3.22;;;1.13;;
65769;SDS011;52512;47.650;8.578;2022-09-28T10:15:25;1.87;;;1.27;;
65769;SDS011;52512;47.650;8.578;2022-09-28T10:17:53;3.58;;;1.05;;
65769;SDS011;52512;47.650;8.578;2022-09-28T10:20:20;2.97;;;1.00;;
65769;SDS011;52512;47.650;8.578;2022-09-28T10:22:47;1.27;;;1.23;;
65769;SDS011;52512;47.650;8.578;2022-09-28T10:25:14;3.60;;;1.33;;
65769;SDS011;52512;47.650;8.578;2022-09-28T10:27:44;1.33;;;1.23;;
65769;SDS011;52512;47.650;8.578;2022-09-28T10:30:20;1.67;;;1.00;;
65769;SDS011;52512;47.650;8.578;2022-09-28T10:32:48;4.45;;;1.10;;
65769;SDS011;52512;47.650;8.578;2022-09-28T10:43:15;1.95;;;1.73;;
65769;SDS011;52512;47.650;8.578;2022-09-28T10:45:45;2.55;;;1.30;;
65769;SDS011;52512;47.650;8.578;2022-09-28T10:48:18;1.73;;;1.30;;
65769;SDS011;52512;47.650;8.578;2022-09-28T10:50:58;1.67;;;1.58;;
65769;SDS011;52512;47.650;8.578;2022-09-28T10:53:27;1.08;;;1.08;;
65769;SDS011;52512;47.650;8.578;2022-09-28T10:55:56;2.30;;;1.83;;
65769;SDS011;52512;47.650;8.578;2022-09-28T10:58:24;2.00;;;1.20;;
65769;SDS011;52512;47.650;8.578;2022-09-28T11:00:52;1.80;;;1.30;;
65769;SDS011;52512;47.650;8.578;2022-09-28T11:03:29;1.88;;;1.25;;
65769;SDS011;52512;47.650;8.578;2022-09-28T11:06:04;3.15;;;1.30;;
65769;SDS011;52512;47.650;8.578;2022-09-28T11:08:35;1.25;;;1.15;;
65769;SDS011;52512;47.650;8.578;2022-09-28T11:11:03;1.20;;;1.10;;
65769;SDS011;52512;47.650;8.578;2022-09-28T11:13:41;1.35;;;1.25;;
65769;SDS011;52512;47.650;8.578;2022-09-28T11:16:28;4.55;;;2.00;;
65769;SDS011;52512;47.650;8.578;2022-09-28T11:19:44;1.20;;;1.20;;
65769;SDS011;52512;47.650;8.578;2022-09-28T11:21:44;1.38;;;1.27;;
65769;SDS011;52512;47.650;8.578;2022-09-28T11:26:43;2.33;;;1.38;;
65769;SDS011;52512;47.650;8.578;2022-09-28T11:29:24;0.98;;;0.98;;
65769;SDS011;52512;47.650;8.578;2022-09-28T11:31:51;1.15;;;1.05;;
65769;SDS011;52512;47.650;8.578;2022-09-28T11:34:23;1.63;;;1.10;;
65769;SDS011;52512;47.650;8.578;2022-09-28T11:39:26;1.65;;;1.23;;
65769;SDS011;52512;47.650;8.578;2022-09-28T11:49:53;2.90;;;1.30;;
65769;SDS011;52512;47.650;8.578;2022-09-28T11:55:17;2.03;;;1.65;;
65769;SDS011;52512;47.650;8.578;2022-09-28T12:00:46;2.40;;;1.65;;
65769;SDS011;52512;47.650;8.578;2022-09-28T12:03:22;1.73;;;1.60;;
65769;SDS011;52512;47.650;8.578;2022-09-28T12:05:58;1.42;;;1.27;;
65769;SDS011;52512;47.650;8.578;2022-09-28T12:08:39;8.63;;;1.48;;
65769;SDS011;52512;47.650;8.578;2022-09-28T12:11:23;2.55;;;1.00;;
65769;SDS011;52512;47.650;8.578;2022-09-28T12:13:56;2.35;;;1.10;;
65769;SDS011;52512;47.650;8.578;2022-09-28T12:16:34;1.90;;;1.05;;
65769;SDS011;52512;47.650;8.578;2022-09-28T12:19:28;3.92;;;1.65;;
65769;SDS011;52512;47.650;8.578;2022-09-28T12:22:43;3.10;;;2.63;;
65769;SDS011;52512;47.650;8.578;2022-09-28T12:24:48;6.35;;;1.33;;
65769;SDS011;52512;47.650;8.578;2022-09-28T12:27:19;2.15;;;1.55;;
65769;SDS011;52512;47.650;8.578;2022-09-28T12:40:57;8.45;;;3.88;;
65769;SDS011;52512;47.650;8.578;2022-09-28T12:43:55;5.07;;;3.00;;
65769;SDS011;52512;47.650;8.578;2022-09-28T12:47:26;2.50;;;2.30;;
65769;SDS011;52512;47.650;8.578;2022-09-28T12:49:44;1.80;;;1.70;;
65769;SDS011;52512;47.650;8.578;2022-09-28T12:58:10;8.43;;;4.22;;
65769;SDS011;52512;47.650;8.578;2022-09-28T13:09:15;5.07;;;2.75;;
65769;SDS011;52512;47.650;8.578;2022-09-28T13:19:57;2.47;;;2.08;;
65769;SDS011;52512;47.650;8.578;2022-09-28T13:22:36;2.55;;;2.00;;
65769;SDS011;52512;47.650;8.578;2022-09-28T13:25:06;3.83;;;2.10;;
65769;SDS011;52512;47.650;8.578;2022-09-28T13:27:43;3.15;;;2.42;;
65769;SDS011;52512;47.650;8.578;2022-09-28T13:30:14;3.55;;;2.20;;
65769;SDS011;52512;47.650;8.578;2022-09-28T13:32:43;3.70;;;3.03;;
65769;SDS011;52512;47.650;8.578;2022-09-28T13:35:14;13.90;;;5.80;;
65769;SDS011;52512;47.650;8.578;2022-09-28T13:37:44;6.72;;;3.90;;
65769;SDS011;52512;47.650;8.578;2022-09-28T13:40:11;3.60;;;2.72;;
65769;SDS011;52512;47.650;8.578;2022-09-28T13:58:58;1.90;;;1.65;;
65769;SDS011;52512;47.650;8.578;2022-09-28T14:01:38;1.77;;;1.67;;
65769;SDS011;52512;47.650;8.578;2022-09-28T14:04:15;4.05;;;2.05;;
65769;SDS011;52512;47.650;8.578;2022-09-28T14:06:48;2.47;;;1.75;;
65769;SDS011;52512;47.650;8.578;2022-09-28T14:12:54;2.13;;;1.90;;
65769;SDS011;52512;47.650;8.578;2022-09-28T14:15:00;1.52;;;1.42;;
65769;SDS011;52512;47.650;8.578;2022-09-28T14:17:43;1.77;;;1.67;;
65769;SDS011;52512;47.650;8.578;2022-09-28T14:20:17;1.73;;;1.63;;
65769;SDS011;52512;47.650;8.578;2022-09-28T14:25:43;1.50;;;1.42;;
65769;SDS011;52512;47.650;8.578;2022-09-28T14:31:24;3.08;;;1.40;;
65769;SDS011;52512;47.650;8.578;2022-09-28T14:33:59;3.65;;;1.92;;
65769;SDS011;52512;47.650;8.578;2022-09-28T14:36:28;1.17;;;1.17;;
65769;SDS011;52512;47.650;8.578;2022-09-28T14:39:21;1.98;;;1.67;;
65769;SDS011;52512;47.650;8.578;2022-09-28T14:42:16;1.98;;;1.40;;
65769;SDS011;52512;47.650;8.578;2022-09-28T14:47:40;1.67;;;1.17;;
65769;SDS011;52512;47.650;8.578;2022-09-28T14:50:27;1.60;;;1.50;;
65769;SDS011;52512;47.650;8.578;2022-09-28T14:52:54;1.40;;;1.30;;
65769;SDS011;52512;47.650;8.578;2022-09-28T14:55:30;3.75;;;2.05;;
65769;SDS011;52512;47.650;8.578;2022-09-28T14:58:04;1.60;;;1.50;;
65769;SDS011;52512;47.650;8.578;2022-09-28T15:00:37;1.83;;;1.70;;
65769;SDS011;52512;47.650;8.578;2022-09-28T15:03:08;1.00;;;1.00;;
65769;SDS011;52512;47.650;8.578;2022-09-28T15:05:44;1.45;;;1.35;;
65769;SDS011;52512;47.650;8.578;2022-09-28T15:08:13;4.32;;;1.42;;
65769;SDS011;52512;47.650;8.578;2022-09-28T15:10:47;1.50;;;1.40;;
65769;SDS011;52512;47.650;8.578;2022-09-28T15:15:47;1.45;;;1.35;;
65769;SDS011;52512;47.650;8.578;2022-09-28T15:20:52;5.18;;;1.20;;
65769;SDS011;52512;47.650;8.578;2022-09-28T15:25:51;1.63;;;1.52;;
65769;SDS011;52512;47.650;8.578;2022-09-28T15:28:19;15.90;;;6.80;;
65769;SDS011;52512;47.650;8.578;2022-09-28T15:30:46;19.25;;;10.45;;
65769;SDS011;52512;47.650;8.578;2022-09-28T15:33:22;17.27;;;9.27;;
65769;SDS011;52512;47.650;8.578;2022-09-28T15:36:11;11.23;;;6.32;;
65769;SDS011;52512;47.650;8.578;2022-09-28T15:39:05;8.05;;;5.07;;
65769;SDS011;52512;47.650;8.578;2022-09-28T15:41:46;5.05;;;3.92;;
65769;SDS011;52512;47.650;8.578;2022-09-28T15:46:40;8.07;;;4.83;;
65769;SDS011;52512;47.650;8.578;2022-09-28T15:49:34;4.72;;;3.65;;
65769;SDS011;52512;47.650;8.578;2022-09-28T15:52:00;6.88;;;3.30;;
65769;SDS011;52512;47.650;8.578;2022-09-28T15:54:48;2.60;;;2.40;;
65769;SDS011;52512;47.650;8.578;2022-09-28T15:57:29;2.60;;;2.50;;
65769;SDS011;52512;47.650;8.578;2022-09-28T15:59:59;2.55;;;2.30;;
65769;SDS011;52512;47.650;8.578;2022-09-28T16:02:25;2.63;;;2.40;;
65769;SDS011;52512;47.650;8.578;2022-09-28T16:04:55;2.20;;;2.00;;
65769;SDS011;52512;47.650;8.578;2022-09-28T16:07:29;1.90;;;1.80;;
65769;SDS011;52512;47.650;8.578;2022-09-28T16:15:03;2.73;;;1.43;;
65769;SDS011;52512;47.650;8.578;2022-09-28T16:17:48;3.15;;;1.60;;
65769;SDS011;52512;47.650;8.578;2022-09-28T16:20:21;2.17;;;1.90;;
65769;SDS011;52512;47.650;8.578;2022-09-28T16:22:47;3.72;;;1.75;;
65769;SDS011;52512;47.650;8.578;2022-09-28T16:25:15;2.25;;;1.48;;
65769;SDS011;52512;47.650;8.578;2022-09-28T16:27:43;2.00;;;1.65;;
65769;SDS011;52512;47.650;8.578;2022-09-28T16:30:26;2.83;;;1.63;;
65769;SDS011;52512;47.650;8.578;2022-09-28T16:33:00;1.27;;;1.27;;
65769;SDS011;52512;47.650;8.578;2022-09-28T16:38:13;2.97;;;1.23;;
65769;SDS011;52512;47.650;8.578;2022-09-28T16:40:41;1.20;;;1.20;;
65769;SDS011;52512;47.650;8.578;2022-09-28T16:43:34;1.40;;;1.30;;
65769;SDS011;52512;47.650;8.578;2022-09-28T16:46:07;2.78;;;1.20;;
65769;SDS011;52512;47.650;8.578;2022-09-28T16:48:37;1.15;;;1.15;;
65769;SDS011;52512;47.650;8.578;2022-09-28T16:51:09;1.20;;;1.20;;
65769;SDS011;52512;47.650;8.578;2022-09-28T16:53:35;1.23;;;1.13;;
65769;SDS011;52512;47.650;8.578;2022-09-28T16:56:19;1.15;;;1.15;;
65769;SDS011;52512;47.650;8.578;2022-09-28T16:58:46;1.38;;;1.27;;
65769;SDS011;52512;47.650;8.578;2022-09-28T17:01:13;1.10;;;1.10;;
65769;SDS011;52512;47.650;8.578;2022-09-28T17:03:39;1.27;;;1.17;;
65769;SDS011;52512;47.650;8.578;2022-09-28T17:06:10;1.20;;;1.20;;
65769;SDS011;52512;47.650;8.578;2022-09-28T17:08:37;1.90;;;1.73;;
65769;SDS011;52512;47.650;8.578;2022-09-28T17:11:03;0.93;;;0.80;;
65769;SDS011;52512;47.650;8.578;2022-09-28T17:13:30;1.73;;;1.20;;
65769;SDS011;52512;47.650;8.578;2022-09-28T17:16:00;1.17;;;1.00;;
65769;SDS011;52512;47.650;8.578;2022-09-28T17:18:30;2.55;;;1.20;;
65769;SDS011;52512;47.650;8.578;2022-09-28T17:20:56;1.50;;;1.40;;
65769;SDS011;52512;47.650;8.578;2022-09-28T17:23:27;1.40;;;1.30;;
65769;SDS011;52512;47.650;8.578;2022-09-28T17:25:53;2.30;;;1.93;;
65769;SDS011;52512;47.650;8.578;2022-09-28T17:28:21;2.25;;;1.52;;
65769;SDS011;52512;47.650;8.578;2022-09-28T17:30:51;1.30;;;1.30;;
65769;SDS011;52512;47.650;8.578;2022-09-28T17:33:17;2.45;;;1.60;;
65769;SDS011;52512;47.650;8.578;2022-09-28T17:35:43;1.40;;;1.30;;
65769;SDS011;52512;47.650;8.578;2022-09-28T17:38:10;1.70;;;1.60;;
65769;SDS011;52512;47.650;8.578;2022-09-28T17:40:37;1.30;;;1.30;;
65769;SDS011;52512;47.650;8.578;2022-09-28T17:43:03;1.70;;;1.60;;
65769;SDS011;52512;47.650;8.578;2022-09-28T17:45:30;2.47;;;1.55;;
65769;SDS011;52512;47.650;8.578;2022-09-28T17:47:57;1.42;;;1.33;;
65769;SDS011;52512;47.650;8.578;2022-09-28T17:50:27;1.88;;;1.67;;
65769;SDS011;52512;47.650;8.578;2022-09-28T17:52:56;2.40;;;2.20;;
65769;SDS011;52512;47.650;8.578;2022-09-28T17:55:27;2.47;;;2.22;;
65769;SDS011;52512;47.650;8.578;2022-09-28T17:57:56;5.00;;;2.58;;
65769;SDS011;52512;47.650;8.578;2022-09-28T18:00:23;4.82;;;3.20;;
65769;SDS011;52512;47.650;8.578;2022-09-28T18:02:51;7.22;;;3.50;;
65769;SDS011;52512;47.650;8.578;2022-09-28T18:05:18;2.80;;;2.50;;
65769;SDS011;52512;47.650;8.578;2022-09-28T18:07:44;4.93;;;3.40;;
65769;SDS011;52512;47.650;8.578;2022-09-28T18:10:15;5.05;;;2.65;;
65769;SDS011;52512;47.650;8.578;2022-09-28T18:12:46;6.63;;;3.03;;
65769;SDS011;52512;47.650;8.578;2022-09-28T18:15:13;4.30;;;2.97;;
65769;SDS011;52512;47.650;8.578;2022-09-28T18:17:39;3.80;;;2.90;;